sensor_id;sensor_type;location;lat;lon;timestamp;P1;durP1;ratioP1;P2;durP2;ratioP2
29214;SDS011;16252;49.816;7.964;2024-03-07T00:02:14;32.97;;;20.08;;
29214;SDS011;16252;49.816;7.964;2024-03-07T00:04:39;28.83;;;17.55;;
29214;SDS011;16252;49.816;7.964;2024-03-07T00:07:05;32.92;;;19.63;;
29214;SDS011;16252;49.816;7.964;2024-03-07T00:09:34;26.30;;;16.67;;
29214;SDS011;16252;49.816;7.964;2024-03-07T00:12:03;28.55;;;18.08;;
29214;SDS011;16252;49.816;7.964;2024-03-07T00:14:31;31.10;;;18.60;;
29214;SDS011;16252;49.816;7.964;2024-03-07T00:16:57;27.63;;;18.30;;
29214;SDS011;16252;49.816;7.964;2024-03-07T00:19:24;28.15;;;18.23;;
29214;SDS011;16252;49.816;7.964;2024-03-07T00:21:52;29.05;;;18.23;;
29214;SDS011;16252;49.816;7.964;2024-03-07T00:24:17;29.10;;;17.65;;
29214;SDS011;16252;49.816;7.964;2024-03-07T00:26:43;27.75;;;17.00;;
29214;SDS011;16252;49.816;7.964;2024-03-07T00:29:09;33.92;;;19.38;;
29214;SDS011;16252;49.816;7.964;2024-03-07T00:31:35;27.73;;;18.10;;
29214;SDS011;16252;49.816;7.964;2024-03-07T00:34:00;28.85;;;17.98;;
29214;SDS011;16252;49.816;7.964;2024-03-07T00:36:26;30.63;;;18.23;;
29214;SDS011;16252;49.816;7.964;2024-03-07T00:38:51;29.58;;;18.38;;
29214;SDS011;16252;49.816;7.964;2024-03-07T00:41:17;28.88;;;18.27;;
29214;SDS011;16252;49.816;7.964;2024-03-07T00:43:42;31.75;;;18.98;;
29214;SDS011;16252;49.816;7.964;2024-03-07T00:46:08;29.02;;;17.67;;
29214;SDS011;16252;49.816;7.964;2024-03-07T00:48:35;26.48;;;17.33;;
29214;SDS011;16252;49.816;7.964;2024-03-07T00:51:01;28.13;;;18.90;;
29214;SDS011;16252;49.816;7.964;2024-03-07T00:53:26;33.65;;;18.60;;
29214;SDS011;16252;49.816;7.964;2024-03-07T00:55:51;28.60;;;17.50;;
29214;SDS011;16252;49.816;7.964;2024-03-07T00:58:17;26.30;;;18.35;;
29214;SDS011;16252;49.816;7.964;2024-03-07T01:00:43;28.65;;;18.42;;
29214;SDS011;16252;49.816;7.964;2024-03-07T01:03:08;27.60;;;17.70;;
29214;SDS011;16252;49.816;7.964;2024-03-07T01:05:36;32.00;;;18.65;;
29214;SDS011;16252;49.816;7.964;2024-03-07T01:08:02;30.00;;;18.40;;
29214;SDS011;16252;49.816;7.964;2024-03-07T01:10:27;32.78;;;19.40;;
29214;SDS011;16252;49.816;7.964;2024-03-07T01:12:53;29.08;;;18.23;;
29214;SDS011;16252;49.816;7.964;2024-03-07T01:15:22;23.60;;;15.87;;
29214;SDS011;16252;49.816;7.964;2024-03-07T01:17:48;26.38;;;17.02;;
29214;SDS011;16252;49.816;7.964;2024-03-07T01:20:13;30.85;;;18.95;;
29214;SDS011;16252;49.816;7.964;2024-03-07T01:22:38;33.42;;;19.48;;
29214;SDS011;16252;49.816;7.964;2024-03-07T01:25:04;30.88;;;19.00;;
29214;SDS011;16252;49.816;7.964;2024-03-07T01:27:31;28.58;;;17.80;;
29214;SDS011;16252;49.816;7.964;2024-03-07T01:29:56;28.17;;;17.88;;
29214;SDS011;16252;49.816;7.964;2024-03-07T01:32:22;29.95;;;18.10;;
29214;SDS011;16252;49.816;7.964;2024-03-07T01:34:47;28.77;;;18.45;;
29214;SDS011;16252;49.816;7.964;2024-03-07T01:37:12;32.13;;;19.63;;
29214;SDS011;16252;49.816;7.964;2024-03-07T01:39:38;31.73;;;19.15;;
29214;SDS011;16252;49.816;7.964;2024-03-07T01:42:03;32.00;;;19.48;;
29214;SDS011;16252;49.816;7.964;2024-03-07T01:44:29;30.38;;;18.60;;
29214;SDS011;16252;49.816;7.964;2024-03-07T01:46:56;31.20;;;18.38;;
29214;SDS011;16252;49.816;7.964;2024-03-07T01:49:22;30.63;;;18.05;;
29214;SDS011;16252;49.816;7.964;2024-03-07T01:51:48;26.77;;;16.67;;
29214;SDS011;16252;49.816;7.964;2024-03-07T01:54:13;31.30;;;19.00;;
29214;SDS011;16252;49.816;7.964;2024-03-07T01:56:38;29.55;;;18.52;;
29214;SDS011;16252;49.816;7.964;2024-03-07T01:59:05;30.52;;;18.23;;
29214;SDS011;16252;49.816;7.964;2024-03-07T02:01:32;31.25;;;19.85;;
29214;SDS011;16252;49.816;7.964;2024-03-07T02:03:58;30.65;;;19.60;;
29214;SDS011;16252;49.816;7.964;2024-03-07T02:06:23;27.00;;;17.52;;
29214;SDS011;16252;49.816;7.964;2024-03-07T02:08:50;30.42;;;19.25;;
29214;SDS011;16252;49.816;7.964;2024-03-07T02:11:15;31.17;;;18.70;;
29214;SDS011;16252;49.816;7.964;2024-03-07T02:13:41;31.17;;;19.20;;
29214;SDS011;16252;49.816;7.964;2024-03-07T02:16:06;30.65;;;19.55;;
29214;SDS011;16252;49.816;7.964;2024-03-07T02:18:32;30.42;;;19.48;;
29214;SDS011;16252;49.816;7.964;2024-03-07T02:21:00;31.63;;;20.75;;
29214;SDS011;16252;49.816;7.964;2024-03-07T02:23:25;29.58;;;18.80;;
29214;SDS011;16252;49.816;7.964;2024-03-07T02:25:52;33.00;;;20.50;;
29214;SDS011;16252;49.816;7.964;2024-03-07T02:28:17;32.67;;;20.40;;
29214;SDS011;16252;49.816;7.964;2024-03-07T02:30:42;34.38;;;20.65;;
29214;SDS011;16252;49.816;7.964;2024-03-07T02:33:07;33.50;;;20.33;;
29214;SDS011;16252;49.816;7.964;2024-03-07T02:35:34;31.90;;;20.77;;
29214;SDS011;16252;49.816;7.964;2024-03-07T02:38:01;29.75;;;19.15;;
29214;SDS011;16252;49.816;7.964;2024-03-07T02:40:28;33.88;;;20.70;;
29214;SDS011;16252;49.816;7.964;2024-03-07T02:42:54;32.17;;;19.58;;
29214;SDS011;16252;49.816;7.964;2024-03-07T02:45:19;35.92;;;20.88;;
29214;SDS011;16252;49.816;7.964;2024-03-07T02:47:45;35.72;;;20.58;;
29214;SDS011;16252;49.816;7.964;2024-03-07T02:50:11;32.35;;;20.38;;
29214;SDS011;16252;49.816;7.964;2024-03-07T02:52:36;36.65;;;21.10;;
29214;SDS011;16252;49.816;7.964;2024-03-07T02:55:02;34.95;;;20.23;;
29214;SDS011;16252;49.816;7.964;2024-03-07T02:57:30;32.22;;;20.10;;
29214;SDS011;16252;49.816;7.964;2024-03-07T02:59:55;30.25;;;19.27;;
29214;SDS011;16252;49.816;7.964;2024-03-07T03:02:21;33.67;;;20.60;;
29214;SDS011;16252;49.816;7.964;2024-03-07T03:04:47;35.63;;;20.02;;
29214;SDS011;16252;49.816;7.964;2024-03-07T03:07:12;34.00;;;20.88;;
29214;SDS011;16252;49.816;7.964;2024-03-07T03:09:38;32.47;;;19.55;;
29214;SDS011;16252;49.816;7.964;2024-03-07T03:14:33;29.17;;;16.60;;
29214;SDS011;16252;49.816;7.964;2024-03-07T03:16:58;32.08;;;19.70;;
29214;SDS011;16252;49.816;7.964;2024-03-07T03:19:24;31.85;;;19.25;;
29214;SDS011;16252;49.816;7.964;2024-03-07T03:21:51;35.85;;;21.08;;
29214;SDS011;16252;49.816;7.964;2024-03-07T03:24:17;31.73;;;20.65;;
29214;SDS011;16252;49.816;7.964;2024-03-07T03:26:42;34.08;;;19.00;;
29214;SDS011;16252;49.816;7.964;2024-03-07T03:29:07;34.10;;;20.63;;
29214;SDS011;16252;49.816;7.964;2024-03-07T03:31:34;35.78;;;20.38;;
29214;SDS011;16252;49.816;7.964;2024-03-07T03:34:00;35.10;;;20.02;;
29214;SDS011;16252;49.816;7.964;2024-03-07T03:36:26;36.58;;;20.50;;
29214;SDS011;16252;49.816;7.964;2024-03-07T03:38:51;36.00;;;20.33;;
29214;SDS011;16252;49.816;7.964;2024-03-07T03:41:16;34.03;;;20.35;;
29214;SDS011;16252;49.816;7.964;2024-03-07T03:43:42;36.45;;;19.65;;
29214;SDS011;16252;49.816;7.964;2024-03-07T03:46:09;38.00;;;21.80;;
29214;SDS011;16252;49.816;7.964;2024-03-07T03:48:38;37.38;;;20.60;;
29214;SDS011;16252;49.816;7.964;2024-03-07T03:51:06;36.22;;;21.50;;
29214;SDS011;16252;49.816;7.964;2024-03-07T03:53:35;35.63;;;20.73;;
29214;SDS011;16252;49.816;7.964;2024-03-07T03:56:03;34.92;;;20.52;;
29214;SDS011;16252;49.816;7.964;2024-03-07T03:58:31;37.58;;;22.55;;
29214;SDS011;16252;49.816;7.964;2024-03-07T04:00:57;35.30;;;21.05;;
29214;SDS011;16252;49.816;7.964;2024-03-07T04:03:23;35.75;;;20.77;;
29214;SDS011;16252;49.816;7.964;2024-03-07T04:05:49;36.67;;;21.33;;
29214;SDS011;16252;49.816;7.964;2024-03-07T04:08:14;37.30;;;21.27;;
29214;SDS011;16252;49.816;7.964;2024-03-07T04:10:39;34.00;;;19.95;;
29214;SDS011;16252;49.816;7.964;2024-03-07T04:13:04;34.65;;;20.08;;
29214;SDS011;16252;49.816;7.964;2024-03-07T04:15:30;34.45;;;20.33;;
29214;SDS011;16252;49.816;7.964;2024-03-07T04:17:56;40.00;;;20.77;;
29214;SDS011;16252;49.816;7.964;2024-03-07T04:20:22;29.77;;;17.92;;
29214;SDS011;16252;49.816;7.964;2024-03-07T04:22:47;36.42;;;20.05;;
29214;SDS011;16252;49.816;7.964;2024-03-07T04:25:14;32.65;;;19.55;;
29214;SDS011;16252;49.816;7.964;2024-03-07T04:27:39;34.03;;;19.25;;
29214;SDS011;16252;49.816;7.964;2024-03-07T04:30:05;39.25;;;20.52;;
29214;SDS011;16252;49.816;7.964;2024-03-07T04:32:32;33.90;;;19.80;;
29214;SDS011;16252;49.816;7.964;2024-03-07T04:34:59;36.25;;;19.80;;
29214;SDS011;16252;49.816;7.964;2024-03-07T04:37:25;35.05;;;20.20;;
29214;SDS011;16252;49.816;7.964;2024-03-07T04:39:52;34.78;;;20.45;;
29214;SDS011;16252;49.816;7.964;2024-03-07T04:42:17;32.95;;;19.80;;
29214;SDS011;16252;49.816;7.964;2024-03-07T04:44:43;30.17;;;19.00;;
29214;SDS011;16252;49.816;7.964;2024-03-07T04:47:08;32.00;;;18.95;;
29214;SDS011;16252;49.816;7.964;2024-03-07T04:49:33;31.75;;;18.45;;
29214;SDS011;16252;49.816;7.964;2024-03-07T04:52:00;33.05;;;19.10;;
29214;SDS011;16252;49.816;7.964;2024-03-07T04:54:26;33.90;;;19.85;;
29214;SDS011;16252;49.816;7.964;2024-03-07T04:56:53;33.80;;;18.42;;
29214;SDS011;16252;49.816;7.964;2024-03-07T04:59:19;32.78;;;17.75;;
29214;SDS011;16252;49.816;7.964;2024-03-07T05:01:45;29.70;;;17.42;;
29214;SDS011;16252;49.816;7.964;2024-03-07T05:04:14;30.33;;;18.38;;
29214;SDS011;16252;49.816;7.964;2024-03-07T05:06:41;33.97;;;19.08;;
29214;SDS011;16252;49.816;7.964;2024-03-07T05:09:08;33.65;;;19.35;;
29214;SDS011;16252;49.816;7.964;2024-03-07T05:11:35;31.65;;;18.73;;
29214;SDS011;16252;49.816;7.964;2024-03-07T05:14:01;32.28;;;19.30;;
29214;SDS011;16252;49.816;7.964;2024-03-07T05:16:27;30.17;;;18.42;;
29214;SDS011;16252;49.816;7.964;2024-03-07T05:18:53;31.48;;;19.50;;
29214;SDS011;16252;49.816;7.964;2024-03-07T05:21:19;31.10;;;18.73;;
29214;SDS011;16252;49.816;7.964;2024-03-07T05:24:04;29.27;;;17.38;;
29214;SDS011;16252;49.816;7.964;2024-03-07T05:26:30;33.78;;;17.98;;
29214;SDS011;16252;49.816;7.964;2024-03-07T05:29:03;33.10;;;18.65;;
29214;SDS011;16252;49.816;7.964;2024-03-07T05:31:35;30.70;;;18.55;;
29214;SDS011;16252;49.816;7.964;2024-03-07T05:34:02;31.48;;;18.50;;
29214;SDS011;16252;49.816;7.964;2024-03-07T05:36:34;33.33;;;19.55;;
29214;SDS011;16252;49.816;7.964;2024-03-07T05:39:00;31.95;;;18.15;;
29214;SDS011;16252;49.816;7.964;2024-03-07T05:41:27;32.90;;;18.15;;
29214;SDS011;16252;49.816;7.964;2024-03-07T05:43:54;30.30;;;17.85;;
29214;SDS011;16252;49.816;7.964;2024-03-07T05:46:20;30.63;;;18.35;;
29214;SDS011;16252;49.816;7.964;2024-03-07T05:48:45;30.98;;;18.30;;
29214;SDS011;16252;49.816;7.964;2024-03-07T05:51:11;30.17;;;17.65;;
29214;SDS011;16252;49.816;7.964;2024-03-07T05:53:36;35.15;;;17.20;;
29214;SDS011;16252;49.816;7.964;2024-03-07T05:56:02;27.83;;;17.13;;
29214;SDS011;16252;49.816;7.964;2024-03-07T05:58:28;27.50;;;16.23;;
29214;SDS011;16252;49.816;7.964;2024-03-07T06:00:53;34.25;;;17.50;;
29214;SDS011;16252;49.816;7.964;2024-03-07T06:03:19;31.15;;;17.80;;
29214;SDS011;16252;49.816;7.964;2024-03-07T06:05:45;31.17;;;17.40;;
29214;SDS011;16252;49.816;7.964;2024-03-07T06:08:13;32.05;;;17.83;;
29214;SDS011;16252;49.816;7.964;2024-03-07T06:10:41;25.75;;;15.23;;
29214;SDS011;16252;49.816;7.964;2024-03-07T06:13:06;30.92;;;17.77;;
29214;SDS011;16252;49.816;7.964;2024-03-07T06:15:32;30.23;;;17.05;;
29214;SDS011;16252;49.816;7.964;2024-03-07T06:17:57;28.65;;;17.25;;
29214;SDS011;16252;49.816;7.964;2024-03-07T06:20:22;30.13;;;16.90;;
29214;SDS011;16252;49.816;7.964;2024-03-07T06:22:51;27.58;;;16.63;;
29214;SDS011;16252;49.816;7.964;2024-03-07T06:25:17;27.27;;;15.70;;
29214;SDS011;16252;49.816;7.964;2024-03-07T06:27:59;29.77;;;15.88;;
29214;SDS011;16252;49.816;7.964;2024-03-07T06:30:33;25.85;;;15.60;;
29214;SDS011;16252;49.816;7.964;2024-03-07T06:32:58;28.02;;;15.70;;
29214;SDS011;16252;49.816;7.964;2024-03-07T06:35:23;27.73;;;15.98;;
29214;SDS011;16252;49.816;7.964;2024-03-07T06:37:49;27.02;;;15.65;;
29214;SDS011;16252;49.816;7.964;2024-03-07T06:40:14;28.52;;;16.55;;
29214;SDS011;16252;49.816;7.964;2024-03-07T06:42:45;26.55;;;15.73;;
29214;SDS011;16252;49.816;7.964;2024-03-07T06:45:11;27.27;;;16.85;;
29214;SDS011;16252;49.816;7.964;2024-03-07T06:47:37;25.70;;;16.40;;
29214;SDS011;16252;49.816;7.964;2024-03-07T06:50:02;27.95;;;16.73;;
29214;SDS011;16252;49.816;7.964;2024-03-07T06:52:28;26.85;;;15.38;;
29214;SDS011;16252;49.816;7.964;2024-03-07T06:54:53;29.42;;;16.70;;
29214;SDS011;16252;49.816;7.964;2024-03-07T06:57:19;25.55;;;15.15;;
29214;SDS011;16252;49.816;7.964;2024-03-07T06:59:44;25.48;;;15.55;;
29214;SDS011;16252;49.816;7.964;2024-03-07T07:02:09;27.88;;;15.48;;
29214;SDS011;16252;49.816;7.964;2024-03-07T07:04:35;24.77;;;15.25;;
29214;SDS011;16252;49.816;7.964;2024-03-07T07:07:09;28.25;;;16.75;;
29214;SDS011;16252;49.816;7.964;2024-03-07T07:09:37;26.98;;;15.73;;
29214;SDS011;16252;49.816;7.964;2024-03-07T07:12:03;26.50;;;15.55;;
29214;SDS011;16252;49.816;7.964;2024-03-07T07:14:29;26.30;;;16.02;;
29214;SDS011;16252;49.816;7.964;2024-03-07T07:16:54;25.52;;;15.68;;
29214;SDS011;16252;49.816;7.964;2024-03-07T07:19:21;25.38;;;16.05;;
29214;SDS011;16252;49.816;7.964;2024-03-07T07:21:46;27.88;;;16.70;;
29214;SDS011;16252;49.816;7.964;2024-03-07T07:24:12;28.25;;;16.10;;
29214;SDS011;16252;49.816;7.964;2024-03-07T07:26:37;22.63;;;14.50;;
29214;SDS011;16252;49.816;7.964;2024-03-07T07:29:03;26.73;;;16.23;;
29214;SDS011;16252;49.816;7.964;2024-03-07T07:31:29;23.38;;;15.38;;
29214;SDS011;16252;49.816;7.964;2024-03-07T07:33:57;26.75;;;16.25;;
29214;SDS011;16252;49.816;7.964;2024-03-07T07:36:22;25.50;;;16.42;;
29214;SDS011;16252;49.816;7.964;2024-03-07T07:38:48;30.65;;;18.08;;
29214;SDS011;16252;49.816;7.964;2024-03-07T07:41:13;30.55;;;17.10;;
29214;SDS011;16252;49.816;7.964;2024-03-07T07:43:39;27.00;;;17.02;;
29214;SDS011;16252;49.816;7.964;2024-03-07T07:46:05;27.58;;;15.80;;
29214;SDS011;16252;49.816;7.964;2024-03-07T07:48:30;28.08;;;17.00;;
29214;SDS011;16252;49.816;7.964;2024-03-07T07:50:56;24.88;;;15.98;;
29214;SDS011;16252;49.816;7.964;2024-03-07T07:53:21;31.10;;;18.05;;
29214;SDS011;16252;49.816;7.964;2024-03-07T07:55:46;25.80;;;16.42;;
29214;SDS011;16252;49.816;7.964;2024-03-07T07:58:13;27.58;;;16.42;;
29214;SDS011;16252;49.816;7.964;2024-03-07T08:00:39;25.10;;;16.08;;
29214;SDS011;16252;49.816;7.964;2024-03-07T08:03:05;28.70;;;17.33;;
29214;SDS011;16252;49.816;7.964;2024-03-07T08:05:34;26.15;;;17.08;;
29214;SDS011;16252;49.816;7.964;2024-03-07T08:08:07;21.63;;;14.98;;
29214;SDS011;16252;49.816;7.964;2024-03-07T08:10:34;31.15;;;17.08;;
29214;SDS011;16252;49.816;7.964;2024-03-07T08:13:01;27.60;;;17.70;;
29214;SDS011;16252;49.816;7.964;2024-03-07T08:15:28;25.52;;;16.35;;
29214;SDS011;16252;49.816;7.964;2024-03-07T08:17:55;26.58;;;16.70;;
29214;SDS011;16252;49.816;7.964;2024-03-07T08:20:21;23.92;;;15.50;;
29214;SDS011;16252;49.816;7.964;2024-03-07T08:22:48;27.85;;;17.90;;
29214;SDS011;16252;49.816;7.964;2024-03-07T08:25:19;26.65;;;16.67;;
29214;SDS011;16252;49.816;7.964;2024-03-07T08:27:46;24.48;;;16.45;;
29214;SDS011;16252;49.816;7.964;2024-03-07T08:30:13;25.23;;;16.25;;
29214;SDS011;16252;49.816;7.964;2024-03-07T08:32:39;27.67;;;17.30;;
29214;SDS011;16252;49.816;7.964;2024-03-07T08:35:06;24.80;;;16.02;;
29214;SDS011;16252;49.816;7.964;2024-03-07T08:37:37;24.58;;;15.70;;
29214;SDS011;16252;49.816;7.964;2024-03-07T08:40:04;27.00;;;16.85;;
29214;SDS011;16252;49.816;7.964;2024-03-07T08:42:35;25.63;;;15.98;;
29214;SDS011;16252;49.816;7.964;2024-03-07T08:45:02;26.08;;;16.45;;
29214;SDS011;16252;49.816;7.964;2024-03-07T08:47:30;24.27;;;15.13;;
29214;SDS011;16252;49.816;7.964;2024-03-07T08:49:56;21.55;;;14.68;;
29214;SDS011;16252;49.816;7.964;2024-03-07T08:52:21;22.98;;;15.07;;
29214;SDS011;16252;49.816;7.964;2024-03-07T08:55:00;23.90;;;14.38;;
29214;SDS011;16252;49.816;7.964;2024-03-07T08:57:25;23.90;;;14.65;;
29214;SDS011;16252;49.816;7.964;2024-03-07T08:59:50;23.50;;;14.98;;
29214;SDS011;16252;49.816;7.964;2024-03-07T09:02:16;22.60;;;14.75;;
29214;SDS011;16252;49.816;7.964;2024-03-07T09:04:41;23.40;;;13.70;;
29214;SDS011;16252;49.816;7.964;2024-03-07T09:07:06;23.02;;;15.13;;
29214;SDS011;16252;49.816;7.964;2024-03-07T09:09:32;21.63;;;14.35;;
29214;SDS011;16252;49.816;7.964;2024-03-07T09:11:58;21.50;;;13.55;;
29214;SDS011;16252;49.816;7.964;2024-03-07T09:14:24;23.58;;;14.65;;
29214;SDS011;16252;49.816;7.964;2024-03-07T09:16:49;21.25;;;13.70;;
29214;SDS011;16252;49.816;7.964;2024-03-07T09:19:16;20.85;;;13.65;;
29214;SDS011;16252;49.816;7.964;2024-03-07T09:21:45;21.10;;;13.38;;
29214;SDS011;16252;49.816;7.964;2024-03-07T09:24:14;19.20;;;13.18;;
29214;SDS011;16252;49.816;7.964;2024-03-07T09:26:40;25.10;;;14.90;;
29214;SDS011;16252;49.816;7.964;2024-03-07T09:29:05;23.08;;;13.60;;
29214;SDS011;16252;49.816;7.964;2024-03-07T09:31:34;24.58;;;13.95;;
29214;SDS011;16252;49.816;7.964;2024-03-07T09:33:59;18.80;;;12.75;;
29214;SDS011;16252;49.816;7.964;2024-03-07T09:36:25;20.70;;;14.05;;
29214;SDS011;16252;49.816;7.964;2024-03-07T09:38:50;16.58;;;11.00;;
29214;SDS011;16252;49.816;7.964;2024-03-07T09:41:15;18.58;;;12.23;;
29214;SDS011;16252;49.816;7.964;2024-03-07T09:43:45;19.00;;;13.07;;
29214;SDS011;16252;49.816;7.964;2024-03-07T09:46:12;18.52;;;12.60;;
29214;SDS011;16252;49.816;7.964;2024-03-07T09:48:38;24.58;;;13.07;;
29214;SDS011;16252;49.816;7.964;2024-03-07T09:51:04;17.42;;;12.18;;
29214;SDS011;16252;49.816;7.964;2024-03-07T09:53:32;19.63;;;11.93;;
29214;SDS011;16252;49.816;7.964;2024-03-07T09:55:57;19.17;;;12.68;;
29214;SDS011;16252;49.816;7.964;2024-03-07T09:58:23;18.05;;;13.13;;
29214;SDS011;16252;49.816;7.964;2024-03-07T10:00:50;20.27;;;13.18;;
29214;SDS011;16252;49.816;7.964;2024-03-07T10:03:19;23.02;;;13.20;;
29214;SDS011;16252;49.816;7.964;2024-03-07T10:05:47;21.40;;;14.00;;
29214;SDS011;16252;49.816;7.964;2024-03-07T10:08:12;20.33;;;14.00;;
29214;SDS011;16252;49.816;7.964;2024-03-07T10:10:38;18.55;;;12.98;;
29214;SDS011;16252;49.816;7.964;2024-03-07T10:13:04;19.73;;;13.55;;
29214;SDS011;16252;49.816;7.964;2024-03-07T10:15:31;19.48;;;13.68;;
29214;SDS011;16252;49.816;7.964;2024-03-07T10:17:57;23.13;;;14.10;;
29214;SDS011;16252;49.816;7.964;2024-03-07T10:20:23;19.98;;;13.55;;
29214;SDS011;16252;49.816;7.964;2024-03-07T10:22:49;20.90;;;13.23;;
29214;SDS011;16252;49.816;7.964;2024-03-07T10:25:16;20.50;;;13.05;;
29214;SDS011;16252;49.816;7.964;2024-03-07T10:27:50;20.67;;;13.85;;
29214;SDS011;16252;49.816;7.964;2024-03-07T10:30:16;22.23;;;13.55;;
29214;SDS011;16252;49.816;7.964;2024-03-07T10:32:45;19.70;;;12.85;;
29214;SDS011;16252;49.816;7.964;2024-03-07T10:35:11;20.98;;;14.07;;
29214;SDS011;16252;49.816;7.964;2024-03-07T10:37:39;21.52;;;14.48;;
29214;SDS011;16252;49.816;7.964;2024-03-07T10:40:05;23.33;;;14.48;;
29214;SDS011;16252;49.816;7.964;2024-03-07T10:42:40;23.15;;;12.95;;
29214;SDS011;16252;49.816;7.964;2024-03-07T10:45:10;22.38;;;14.95;;
29214;SDS011;16252;49.816;7.964;2024-03-07T10:47:36;21.08;;;14.40;;
29214;SDS011;16252;49.816;7.964;2024-03-07T10:52:53;22.40;;;14.57;;
29214;SDS011;16252;49.816;7.964;2024-03-07T10:58:02;21.35;;;14.23;;
29214;SDS011;16252;49.816;7.964;2024-03-07T11:00:36;21.35;;;14.80;;
29214;SDS011;16252;49.816;7.964;2024-03-07T11:03:10;19.98;;;13.32;;
29214;SDS011;16252;49.816;7.964;2024-03-07T11:05:36;20.00;;;13.65;;
29214;SDS011;16252;49.816;7.964;2024-03-07T11:08:02;20.45;;;14.80;;
29214;SDS011;16252;49.816;7.964;2024-03-07T11:10:37;23.90;;;15.27;;
29214;SDS011;16252;49.816;7.964;2024-03-07T11:13:04;23.33;;;16.00;;
29214;SDS011;16252;49.816;7.964;2024-03-07T11:15:32;21.88;;;14.80;;
29214;SDS011;16252;49.816;7.964;2024-03-07T11:17:59;20.33;;;15.13;;
29214;SDS011;16252;49.816;7.964;2024-03-07T11:20:25;23.60;;;14.57;;
29214;SDS011;16252;49.816;7.964;2024-03-07T11:22:51;23.02;;;14.50;;
29214;SDS011;16252;49.816;7.964;2024-03-07T11:25:21;21.50;;;15.23;;
29214;SDS011;16252;49.816;7.964;2024-03-07T11:27:51;19.42;;;13.65;;
29214;SDS011;16252;49.816;7.964;2024-03-07T11:30:18;20.80;;;14.02;;
29214;SDS011;16252;49.816;7.964;2024-03-07T11:32:46;19.45;;;14.63;;
29214;SDS011;16252;49.816;7.964;2024-03-07T11:35:13;18.92;;;13.35;;
29214;SDS011;16252;49.816;7.964;2024-03-07T11:37:42;19.80;;;14.95;;
29214;SDS011;16252;49.816;7.964;2024-03-07T11:40:12;20.52;;;14.27;;
29214;SDS011;16252;49.816;7.964;2024-03-07T11:42:47;20.35;;;14.77;;
29214;SDS011;16252;49.816;7.964;2024-03-07T11:45:13;22.27;;;15.25;;
29214;SDS011;16252;49.816;7.964;2024-03-07T11:47:52;23.70;;;15.55;;
29214;SDS011;16252;49.816;7.964;2024-03-07T11:50:22;21.85;;;14.80;;
29214;SDS011;16252;49.816;7.964;2024-03-07T11:52:50;24.15;;;15.55;;
29214;SDS011;16252;49.816;7.964;2024-03-07T11:55:17;21.77;;;14.93;;
29214;SDS011;16252;49.816;7.964;2024-03-07T11:57:44;22.75;;;14.93;;
29214;SDS011;16252;49.816;7.964;2024-03-07T12:00:11;21.60;;;14.25;;
29214;SDS011;16252;49.816;7.964;2024-03-07T12:02:37;28.30;;;14.13;;
29214;SDS011;16252;49.816;7.964;2024-03-07T12:05:04;23.08;;;15.57;;
29214;SDS011;16252;49.816;7.964;2024-03-07T12:07:30;24.67;;;15.18;;
29214;SDS011;16252;49.816;7.964;2024-03-07T12:09:56;23.33;;;15.13;;
29214;SDS011;16252;49.816;7.964;2024-03-07T12:12:21;23.45;;;15.63;;
29214;SDS011;16252;49.816;7.964;2024-03-07T12:14:48;20.13;;;13.90;;
29214;SDS011;16252;49.816;7.964;2024-03-07T12:17:16;20.52;;;13.52;;
29214;SDS011;16252;49.816;7.964;2024-03-07T12:19:42;21.77;;;13.90;;
29214;SDS011;16252;49.816;7.964;2024-03-07T12:22:08;22.52;;;14.40;;
29214;SDS011;16252;49.816;7.964;2024-03-07T12:24:38;19.73;;;13.75;;
29214;SDS011;16252;49.816;7.964;2024-03-07T12:27:10;21.80;;;14.85;;
29214;SDS011;16252;49.816;7.964;2024-03-07T12:32:04;19.85;;;13.52;;
29214;SDS011;16252;49.816;7.964;2024-03-07T12:34:31;22.38;;;14.25;;
29214;SDS011;16252;49.816;7.964;2024-03-07T12:37:01;21.60;;;14.70;;
29214;SDS011;16252;49.816;7.964;2024-03-07T12:39:26;19.27;;;14.00;;
29214;SDS011;16252;49.816;7.964;2024-03-07T12:41:57;21.55;;;14.93;;
29214;SDS011;16252;49.816;7.964;2024-03-07T12:44:23;23.35;;;14.77;;
29214;SDS011;16252;49.816;7.964;2024-03-07T12:46:48;20.40;;;13.93;;
29214;SDS011;16252;49.816;7.964;2024-03-07T12:49:18;21.67;;;14.60;;
29214;SDS011;16252;49.816;7.964;2024-03-07T12:51:44;22.42;;;14.90;;
29214;SDS011;16252;49.816;7.964;2024-03-07T12:54:09;24.23;;;14.27;;
29214;SDS011;16252;49.816;7.964;2024-03-07T12:56:38;22.88;;;14.88;;
29214;SDS011;16252;49.816;7.964;2024-03-07T12:59:04;22.83;;;13.75;;
29214;SDS011;16252;49.816;7.964;2024-03-07T13:01:30;22.08;;;13.80;;
29214;SDS011;16252;49.816;7.964;2024-03-07T13:03:58;21.48;;;13.82;;
29214;SDS011;16252;49.816;7.964;2024-03-07T13:06:24;21.05;;;14.50;;
29214;SDS011;16252;49.816;7.964;2024-03-07T13:11:21;19.73;;;13.57;;
29214;SDS011;16252;49.816;7.964;2024-03-07T13:13:47;21.77;;;13.73;;
29214;SDS011;16252;49.816;7.964;2024-03-07T13:16:13;19.92;;;13.35;;
29214;SDS011;16252;49.816;7.964;2024-03-07T13:18:38;21.95;;;13.65;;
29214;SDS011;16252;49.816;7.964;2024-03-07T13:21:04;19.83;;;13.35;;
29214;SDS011;16252;49.816;7.964;2024-03-07T13:23:31;19.92;;;13.18;;
29214;SDS011;16252;49.816;7.964;2024-03-07T13:25:57;22.70;;;12.13;;
29214;SDS011;16252;49.816;7.964;2024-03-07T13:28:24;23.50;;;13.60;;
29214;SDS011;16252;49.816;7.964;2024-03-07T13:30:50;16.63;;;11.70;;
29214;SDS011;16252;49.816;7.964;2024-03-07T13:33:19;19.42;;;13.20;;
29214;SDS011;16252;49.816;7.964;2024-03-07T13:35:45;17.38;;;11.93;;
29214;SDS011;16252;49.816;7.964;2024-03-07T13:38:10;19.40;;;12.70;;
29214;SDS011;16252;49.816;7.964;2024-03-07T13:40:35;18.92;;;12.20;;
29214;SDS011;16252;49.816;7.964;2024-03-07T13:43:04;15.70;;;11.13;;
29214;SDS011;16252;49.816;7.964;2024-03-07T13:45:30;19.50;;;12.20;;
29214;SDS011;16252;49.816;7.964;2024-03-07T13:47:57;16.80;;;11.55;;
29214;SDS011;16252;49.816;7.964;2024-03-07T13:50:28;19.40;;;11.75;;
29214;SDS011;16252;49.816;7.964;2024-03-07T13:52:54;16.77;;;10.80;;
29214;SDS011;16252;49.816;7.964;2024-03-07T13:58:18;16.58;;;10.52;;
29214;SDS011;16252;49.816;7.964;2024-03-07T14:09:53;17.23;;;10.82;;
29214;SDS011;16252;49.816;7.964;2024-03-07T14:15:57;15.77;;;10.40;;
29214;SDS011;16252;49.816;7.964;2024-03-07T14:32:54;14.85;;;10.60;;
29214;SDS011;16252;49.816;7.964;2024-03-07T14:40:46;13.98;;;8.98;;
29214;SDS011;16252;49.816;7.964;2024-03-07T14:43:14;14.60;;;10.05;;
29214;SDS011;16252;49.816;7.964;2024-03-07T14:45:41;14.10;;;9.43;;
29214;SDS011;16252;49.816;7.964;2024-03-07T14:48:08;13.45;;;9.18;;
29214;SDS011;16252;49.816;7.964;2024-03-07T14:50:35;17.17;;;9.70;;
29214;SDS011;16252;49.816;7.964;2024-03-07T14:53:02;14.98;;;9.48;;
29214;SDS011;16252;49.816;7.964;2024-03-07T14:55:29;13.50;;;9.88;;
29214;SDS011;16252;49.816;7.964;2024-03-07T14:57:55;13.43;;;9.45;;
29214;SDS011;16252;49.816;7.964;2024-03-07T15:00:20;15.77;;;9.30;;
29214;SDS011;16252;49.816;7.964;2024-03-07T15:02:51;12.32;;;9.27;;
29214;SDS011;16252;49.816;7.964;2024-03-07T15:05:19;15.60;;;9.68;;
29214;SDS011;16252;49.816;7.964;2024-03-07T15:07:47;17.10;;;10.32;;